| Time | Avg. Air Temp | Dew Point | Avg. Rel Humidity | Avg. 2 Min Wind Speed | Max Gust Velocity | MGV Time | MGV Direction | Avg. Spot Wind Velocity |
|---|---|---|---|---|---|---|---|---|
| 2026-09-02 03:35:00 | 7° C | 4° C | 81% | 18 km/h | 25 km/h | 03:34:00 | SE | 16 km/h |
| 02:35:00 | 6° C | 4° C | 87% | 21 km/h | 27 km/h | 02:35:00 | SE | 20 km/h |
| 01:35:00 | 6° C | 5° C | 93% | 19 km/h | 28 km/h | 01:32:00 | S | 21 km/h |
| 00:35:00 | 6° C | 5° C | 92% | 23 km/h | 33 km/h | 00:32:00 | SE | 23 km/h |
| 23:35:00 | 6° C | 5° C | 94% | 25 km/h | 36 km/h | 23:35:00 | SE | 25 km/h |
| 22:35:00 | 6° C | 6° C | 100% | 39 km/h | 55 km/h | 22:32:00 | SE | 34 km/h |
| 21:35:00 | 8° C | 5° C | 78% | 25 km/h | 59 km/h | 21:32:00 | SE | 34 km/h |
| 20:35:00 | 11° C | 2° C | 56% | 7 km/h | 17 km/h | 20:33:00 | S | 8 km/h |
| 19:35:00 | 12° C | 1° C | 48% | 13 km/h | 29 km/h | 19:31:00 | SE | 15 km/h |
| 18:35:00 | 12° C | 2° C | 49% | 14 km/h | 39 km/h | 18:31:00 | SE | 14 km/h |
| 17:35:00 | 12° C | -0° C | 41% | 10 km/h | 25 km/h | 17:31:00 | SE | 13 km/h |
| 16:35:00 | 13° C | -0° C | 41% | 17 km/h | 28 km/h | 16:35:00 | SE | 15 km/h |
| 15:35:00 | 14° C | 2° C | 52% | 9 km/h | 15 km/h | 15:35:00 | S | 7 km/h |
| 14:35:00 | 14° C | 4° C | 51% | 8 km/h | 16 km/h | 14:33:00 | S | 7 km/h |
| 13:35:00 | 13° C | 6° C | 57% | 6 km/h | 16 km/h | 13:31:00 | NE | 9 km/h |
| 12:35:00 | 12° C | 4° C | 60% | 13 km/h | 17 km/h | 12:34:00 | E | 7 km/h |
| 11:35:00 | 11° C | 6° C | 67% | 6 km/h | 14 km/h | 11:33:00 | E | 9 km/h |
| 10:35:00 | 11° C | 5° C | 65% | 6 km/h | 12 km/h | 10:33:00 | SE | 7 km/h |
| 09:35:00 | 9° C | 5° C | 72% | 13 km/h | 19 km/h | 09:33:00 | S | 13 km/h |
| 08:35:00 | 8° C | 4° C | 77% | 12 km/h | 17 km/h | 08:35:00 | S | 10 km/h |
| 07:35:00 | 7° C | 4° C | 78% | 14 km/h | 23 km/h | 07:32:00 | SE | 18 km/h |
| 06:35:00 | 7° C | 4° C | 80% | 22 km/h | 24 km/h | 06:33:00 | S | 22 km/h |
| 05:35:00 | 7° C | 4° C | 79% | 13 km/h | 17 km/h | 05:32:00 | SE | 14 km/h |
| 04:35:00 | 7° C | 4° C | 78% | 18 km/h | 21 km/h | 04:32:00 | S | 19 km/h |
Subpeak Weather
| Time | Avg. Air Temp | Dew Point | Avg. Rel Humidity | Avg. 2 Min Wind Speed | Max Gust Velocity | MGV Time | MGV Direction | Avg. Spot Wind Velocity |
|---|---|---|---|---|---|---|---|---|
| 2026-09-02 03:35:00 | 7° C | 4° C | 81% | 18 km/h | 25 km/h | 03:34:00 | SE | 16 km/h |
| 03:30:00 | 7° C | 4° C | 81% | 16 km/h | 18 km/h | 03:26:00 | SE | 14 km/h |
| 03:25:00 | 7° C | 4° C | 81% | 15 km/h | 25 km/h | 03:21:00 | S | 16 km/h |
| 03:20:00 | 7° C | 4° C | 81% | 16 km/h | 27 km/h | 03:16:00 | SE | 19 km/h |
| 03:15:00 | 7° C | 4° C | 81% | 16 km/h | 22 km/h | 03:12:00 | SE | 15 km/h |
| 03:10:00 | 7° C | 4° C | 82% | 21 km/h | 26 km/h | 03:07:00 | S | 19 km/h |
| 03:05:00 | 7° C | 4° C | 83% | 21 km/h | 23 km/h | 03:04:00 | SE | 20 km/h |
| 03:00:00 | 7° C | 4° C | 84% | 17 km/h | 26 km/h | 02:56:00 | SE | 20 km/h |
| 02:55:00 | 7° C | 4° C | 84% | 19 km/h | 27 km/h | 02:55:00 | SE | 22 km/h |
| 02:50:00 | 7° C | 4° C | 82% | 23 km/h | 27 km/h | 02:49:00 | S | 22 km/h |
| 02:45:00 | 7° C | 4° C | 82% | 19 km/h | 22 km/h | 02:45:00 | SE | 20 km/h |
| 02:40:00 | 6° C | 4° C | 85% | 19 km/h | 23 km/h | 02:38:00 | SE | 20 km/h |
| 02:35:00 | 6° C | 4° C | 87% | 21 km/h | 27 km/h | 02:35:00 | SE | 20 km/h |




